sensor_id;sensor_type;location;lat;lon;timestamp;P1;durP1;ratioP1;P2;durP2;ratioP2
62633;SDS011;48704;50.534;6.442;2022-10-31T00:02:06;13.52;;;4.43;;
62633;SDS011;48704;50.534;6.442;2022-10-31T00:04:32;10.00;;;4.60;;
62633;SDS011;48704;50.534;6.442;2022-10-31T00:06:57;13.13;;;4.00;;
62633;SDS011;48704;50.534;6.442;2022-10-31T00:09:23;8.18;;;4.25;;
62633;SDS011;48704;50.534;6.442;2022-10-31T00:11:48;10.57;;;4.50;;
62633;SDS011;48704;50.534;6.442;2022-10-31T00:14:13;11.18;;;5.18;;
62633;SDS011;48704;50.534;6.442;2022-10-31T00:16:38;10.77;;;5.60;;
62633;SDS011;48704;50.534;6.442;2022-10-31T00:19:06;9.63;;;4.45;;
62633;SDS011;48704;50.534;6.442;2022-10-31T00:21:31;10.60;;;4.85;;
62633;SDS011;48704;50.534;6.442;2022-10-31T00:23:58;12.50;;;4.80;;
62633;SDS011;48704;50.534;6.442;2022-10-31T00:26:24;10.32;;;4.80;;
62633;SDS011;48704;50.534;6.442;2022-10-31T00:28:49;10.93;;;4.40;;
62633;SDS011;48704;50.534;6.442;2022-10-31T00:31:16;9.45;;;4.18;;
62633;SDS011;48704;50.534;6.442;2022-10-31T00:33:41;9.30;;;4.03;;
62633;SDS011;48704;50.534;6.442;2022-10-31T00:36:07;8.38;;;4.63;;
62633;SDS011;48704;50.534;6.442;2022-10-31T00:38:36;13.10;;;4.20;;
62633;SDS011;48704;50.534;6.442;2022-10-31T00:41:02;10.38;;;4.15;;
62633;SDS011;48704;50.534;6.442;2022-10-31T00:43:27;11.63;;;5.15;;
62633;SDS011;48704;50.534;6.442;2022-10-31T00:45:52;10.35;;;4.07;;
62633;SDS011;48704;50.534;6.442;2022-10-31T00:48:18;8.43;;;4.00;;
62633;SDS011;48704;50.534;6.442;2022-10-31T00:50:43;10.85;;;4.78;;
62633;SDS011;48704;50.534;6.442;2022-10-31T00:53:08;11.30;;;4.15;;
62633;SDS011;48704;50.534;6.442;2022-10-31T00:55:34;10.82;;;4.40;;
62633;SDS011;48704;50.534;6.442;2022-10-31T00:57:59;12.85;;;4.20;;
62633;SDS011;48704;50.534;6.442;2022-10-31T01:00:25;8.35;;;4.18;;
62633;SDS011;48704;50.534;6.442;2022-10-31T01:02:50;8.57;;;4.18;;
62633;SDS011;48704;50.534;6.442;2022-10-31T01:05:16;10.10;;;4.63;;
62633;SDS011;48704;50.534;6.442;2022-10-31T01:07:41;9.65;;;4.55;;
62633;SDS011;48704;50.534;6.442;2022-10-31T01:10:07;8.05;;;4.32;;
62633;SDS011;48704;50.534;6.442;2022-10-31T01:12:42;7.70;;;3.85;;
62633;SDS011;48704;50.534;6.442;2022-10-31T01:15:10;11.75;;;4.85;;
62633;SDS011;48704;50.534;6.442;2022-10-31T01:17:37;11.88;;;4.82;;
62633;SDS011;48704;50.534;6.442;2022-10-31T01:20:03;11.32;;;4.07;;
62633;SDS011;48704;50.534;6.442;2022-10-31T01:22:29;10.90;;;3.85;;
62633;SDS011;48704;50.534;6.442;2022-10-31T01:24:54;13.43;;;3.90;;
62633;SDS011;48704;50.534;6.442;2022-10-31T01:27:19;8.07;;;3.80;;
62633;SDS011;48704;50.534;6.442;2022-10-31T01:29:45;8.93;;;4.20;;
62633;SDS011;48704;50.534;6.442;2022-10-31T01:32:10;8.00;;;3.90;;
62633;SDS011;48704;50.534;6.442;2022-10-31T01:34:36;10.25;;;3.55;;
62633;SDS011;48704;50.534;6.442;2022-10-31T01:37:01;8.00;;;4.20;;
62633;SDS011;48704;50.534;6.442;2022-10-31T01:39:26;15.70;;;4.97;;
62633;SDS011;48704;50.534;6.442;2022-10-31T01:41:52;8.60;;;4.70;;
62633;SDS011;48704;50.534;6.442;2022-10-31T01:46:50;10.88;;;5.15;;
62633;SDS011;48704;50.534;6.442;2022-10-31T01:49:17;10.90;;;4.75;;
62633;SDS011;48704;50.534;6.442;2022-10-31T01:51:58;7.78;;;4.25;;
62633;SDS011;48704;50.534;6.442;2022-10-31T01:54:29;10.68;;;4.60;;
62633;SDS011;48704;50.534;6.442;2022-10-31T01:56:58;9.05;;;4.43;;
62633;SDS011;48704;50.534;6.442;2022-10-31T01:59:26;8.10;;;4.18;;
62633;SDS011;48704;50.534;6.442;2022-10-31T02:01:54;12.52;;;4.93;;
62633;SDS011;48704;50.534;6.442;2022-10-31T02:04:20;12.57;;;4.80;;
62633;SDS011;48704;50.534;6.442;2022-10-31T02:06:55;13.00;;;5.60;;
62633;SDS011;48704;50.534;6.442;2022-10-31T02:09:24;15.07;;;4.70;;
62633;SDS011;48704;50.534;6.442;2022-10-31T02:11:52;10.55;;;5.38;;
62633;SDS011;48704;50.534;6.442;2022-10-31T02:14:22;10.73;;;4.85;;
62633;SDS011;48704;50.534;6.442;2022-10-31T02:16:49;15.07;;;5.78;;
62633;SDS011;48704;50.534;6.442;2022-10-31T02:19:17;9.50;;;4.32;;
62633;SDS011;48704;50.534;6.442;2022-10-31T02:21:55;11.57;;;5.47;;
62633;SDS011;48704;50.534;6.442;2022-10-31T02:32:22;11.63;;;4.97;;
62633;SDS011;48704;50.534;6.442;2022-10-31T02:37:41;13.07;;;5.75;;
62633;SDS011;48704;50.534;6.442;2022-10-31T02:40:33;12.07;;;4.97;;
62633;SDS011;48704;50.534;6.442;2022-10-31T02:45:41;7.85;;;4.40;;
62633;SDS011;48704;50.534;6.442;2022-10-31T02:48:18;10.15;;;4.82;;
62633;SDS011;48704;50.534;6.442;2022-10-31T02:50:49;12.98;;;4.35;;
62633;SDS011;48704;50.534;6.442;2022-10-31T02:53:24;10.50;;;4.85;;
62633;SDS011;48704;50.534;6.442;2022-10-31T02:55:57;9.88;;;4.85;;
62633;SDS011;48704;50.534;6.442;2022-10-31T02:58:26;9.68;;;4.97;;
62633;SDS011;48704;50.534;6.442;2022-10-31T03:09:40;11.18;;;4.80;;
62633;SDS011;48704;50.534;6.442;2022-10-31T03:15:06;9.43;;;4.55;;
62633;SDS011;48704;50.534;6.442;2022-10-31T03:17:52;8.50;;;4.35;;
62633;SDS011;48704;50.534;6.442;2022-10-31T03:20:39;9.93;;;4.35;;
62633;SDS011;48704;50.534;6.442;2022-10-31T03:23:10;11.40;;;5.05;;
62633;SDS011;48704;50.534;6.442;2022-10-31T03:25:39;11.23;;;5.07;;
62633;SDS011;48704;50.534;6.442;2022-10-31T03:28:06;11.50;;;4.55;;
62633;SDS011;48704;50.534;6.442;2022-10-31T03:30:35;9.23;;;4.63;;
62633;SDS011;48704;50.534;6.442;2022-10-31T03:33:04;9.00;;;4.78;;
62633;SDS011;48704;50.534;6.442;2022-10-31T03:35:34;11.15;;;6.05;;
62633;SDS011;48704;50.534;6.442;2022-10-31T03:38:01;12.95;;;4.68;;
62633;SDS011;48704;50.534;6.442;2022-10-31T03:40:28;11.90;;;4.88;;
62633;SDS011;48704;50.534;6.442;2022-10-31T03:42:57;11.25;;;4.70;;
62633;SDS011;48704;50.534;6.442;2022-10-31T03:45:32;12.02;;;4.40;;
62633;SDS011;48704;50.534;6.442;2022-10-31T03:48:00;11.20;;;4.25;;
62633;SDS011;48704;50.534;6.442;2022-10-31T03:50:28;10.60;;;4.93;;
62633;SDS011;48704;50.534;6.442;2022-10-31T03:53:04;11.63;;;5.63;;
62633;SDS011;48704;50.534;6.442;2022-10-31T03:56:34;13.45;;;4.30;;
62633;SDS011;48704;50.534;6.442;2022-10-31T04:03:57;9.15;;;4.25;;
62633;SDS011;48704;50.534;6.442;2022-10-31T04:06:23;10.75;;;4.85;;
62633;SDS011;48704;50.534;6.442;2022-10-31T04:08:59;10.20;;;4.18;;
62633;SDS011;48704;50.534;6.442;2022-10-31T04:11:28;13.30;;;5.18;;
62633;SDS011;48704;50.534;6.442;2022-10-31T04:13:56;12.75;;;5.10;;
62633;SDS011;48704;50.534;6.442;2022-10-31T04:16:25;13.35;;;4.70;;
62633;SDS011;48704;50.534;6.442;2022-10-31T04:18:51;11.55;;;4.93;;
62633;SDS011;48704;50.534;6.442;2022-10-31T04:21:17;11.20;;;4.20;;
62633;SDS011;48704;50.534;6.442;2022-10-31T04:23:42;12.85;;;4.20;;
62633;SDS011;48704;50.534;6.442;2022-10-31T04:26:08;15.48;;;5.00;;
62633;SDS011;48704;50.534;6.442;2022-10-31T04:28:36;12.05;;;4.95;;
62633;SDS011;48704;50.534;6.442;2022-10-31T04:31:01;15.20;;;4.78;;
62633;SDS011;48704;50.534;6.442;2022-10-31T04:33:27;8.88;;;5.05;;
62633;SDS011;48704;50.534;6.442;2022-10-31T04:35:52;9.45;;;4.78;;
62633;SDS011;48704;50.534;6.442;2022-10-31T04:38:18;9.30;;;5.18;;
62633;SDS011;48704;50.534;6.442;2022-10-31T04:40:44;13.23;;;4.68;;
62633;SDS011;48704;50.534;6.442;2022-10-31T04:43:10;12.55;;;4.70;;
62633;SDS011;48704;50.534;6.442;2022-10-31T04:45:35;9.68;;;4.63;;
62633;SDS011;48704;50.534;6.442;2022-10-31T04:48:01;11.20;;;4.70;;
62633;SDS011;48704;50.534;6.442;2022-10-31T04:50:27;11.30;;;4.63;;
62633;SDS011;48704;50.534;6.442;2022-10-31T04:52:52;11.18;;;5.32;;
62633;SDS011;48704;50.534;6.442;2022-10-31T04:55:17;9.73;;;4.75;;
62633;SDS011;48704;50.534;6.442;2022-10-31T04:57:43;12.38;;;5.32;;
62633;SDS011;48704;50.534;6.442;2022-10-31T05:00:10;13.35;;;5.07;;
62633;SDS011;48704;50.534;6.442;2022-10-31T05:02:46;11.93;;;5.15;;
62633;SDS011;48704;50.534;6.442;2022-10-31T05:05:16;18.75;;;5.80;;
62633;SDS011;48704;50.534;6.442;2022-10-31T05:07:43;9.95;;;5.15;;
62633;SDS011;48704;50.534;6.442;2022-10-31T05:10:10;8.88;;;4.32;;
62633;SDS011;48704;50.534;6.442;2022-10-31T05:12:37;11.80;;;5.38;;
62633;SDS011;48704;50.534;6.442;2022-10-31T05:15:03;10.77;;;5.10;;
62633;SDS011;48704;50.534;6.442;2022-10-31T05:17:30;13.95;;;5.20;;
62633;SDS011;48704;50.534;6.442;2022-10-31T05:19:56;8.57;;;5.07;;
62633;SDS011;48704;50.534;6.442;2022-10-31T05:22:21;10.20;;;4.95;;
62633;SDS011;48704;50.534;6.442;2022-10-31T05:24:47;9.95;;;4.65;;
62633;SDS011;48704;50.534;6.442;2022-10-31T05:27:12;9.98;;;4.85;;
62633;SDS011;48704;50.534;6.442;2022-10-31T05:29:37;11.45;;;5.32;;
62633;SDS011;48704;50.534;6.442;2022-10-31T05:32:02;11.18;;;5.00;;
62633;SDS011;48704;50.534;6.442;2022-10-31T05:34:28;11.20;;;5.18;;
62633;SDS011;48704;50.534;6.442;2022-10-31T05:36:53;10.35;;;4.88;;
62633;SDS011;48704;50.534;6.442;2022-10-31T05:39:18;14.57;;;5.50;;
62633;SDS011;48704;50.534;6.442;2022-10-31T05:41:44;11.13;;;5.60;;
62633;SDS011;48704;50.534;6.442;2022-10-31T05:44:09;11.77;;;5.22;;
62633;SDS011;48704;50.534;6.442;2022-10-31T05:46:34;11.88;;;5.65;;
62633;SDS011;48704;50.534;6.442;2022-10-31T05:48:59;12.05;;;5.05;;
62633;SDS011;48704;50.534;6.442;2022-10-31T05:51:25;13.02;;;5.35;;
62633;SDS011;48704;50.534;6.442;2022-10-31T05:53:50;15.38;;;6.35;;
62633;SDS011;48704;50.534;6.442;2022-10-31T05:56:15;10.50;;;4.57;;
62633;SDS011;48704;50.534;6.442;2022-10-31T05:58:41;11.55;;;5.45;;
62633;SDS011;48704;50.534;6.442;2022-10-31T06:01:06;11.52;;;6.45;;
62633;SDS011;48704;50.534;6.442;2022-10-31T06:03:32;14.73;;;5.20;;
62633;SDS011;48704;50.534;6.442;2022-10-31T06:05:57;13.35;;;6.13;;
62633;SDS011;48704;50.534;6.442;2022-10-31T06:08:22;11.98;;;5.20;;
62633;SDS011;48704;50.534;6.442;2022-10-31T06:10:48;12.88;;;6.15;;
62633;SDS011;48704;50.534;6.442;2022-10-31T06:13:13;12.15;;;6.07;;
62633;SDS011;48704;50.534;6.442;2022-10-31T06:15:38;12.90;;;6.10;;
62633;SDS011;48704;50.534;6.442;2022-10-31T06:18:04;15.27;;;5.82;;
62633;SDS011;48704;50.534;6.442;2022-10-31T06:20:31;15.38;;;5.20;;
62633;SDS011;48704;50.534;6.442;2022-10-31T06:22:57;12.18;;;5.85;;
62633;SDS011;48704;50.534;6.442;2022-10-31T06:25:22;14.93;;;5.38;;
62633;SDS011;48704;50.534;6.442;2022-10-31T06:27:48;12.68;;;5.47;;
62633;SDS011;48704;50.534;6.442;2022-10-31T06:30:13;15.43;;;6.18;;
62633;SDS011;48704;50.534;6.442;2022-10-31T06:32:39;13.95;;;5.50;;
62633;SDS011;48704;50.534;6.442;2022-10-31T06:35:04;12.13;;;5.72;;
62633;SDS011;48704;50.534;6.442;2022-10-31T06:37:30;13.55;;;5.97;;
62633;SDS011;48704;50.534;6.442;2022-10-31T06:39:55;13.77;;;6.22;;
62633;SDS011;48704;50.534;6.442;2022-10-31T06:42:20;11.63;;;5.65;;
62633;SDS011;48704;50.534;6.442;2022-10-31T06:44:45;15.02;;;5.97;;
62633;SDS011;48704;50.534;6.442;2022-10-31T06:47:11;12.25;;;6.32;;
62633;SDS011;48704;50.534;6.442;2022-10-31T06:49:36;14.32;;;7.55;;
62633;SDS011;48704;50.534;6.442;2022-10-31T06:52:01;14.20;;;6.65;;
62633;SDS011;48704;50.534;6.442;2022-10-31T06:54:27;15.60;;;7.40;;
62633;SDS011;48704;50.534;6.442;2022-10-31T06:56:52;17.90;;;7.68;;
62633;SDS011;48704;50.534;6.442;2022-10-31T06:59:17;19.08;;;7.10;;
62633;SDS011;48704;50.534;6.442;2022-10-31T07:01:43;14.32;;;7.38;;
62633;SDS011;48704;50.534;6.442;2022-10-31T07:04:09;19.10;;;8.68;;
62633;SDS011;48704;50.534;6.442;2022-10-31T07:06:35;18.17;;;8.60;;
62633;SDS011;48704;50.534;6.442;2022-10-31T07:09:00;16.02;;;8.15;;
62633;SDS011;48704;50.534;6.442;2022-10-31T07:11:26;17.67;;;8.10;;
62633;SDS011;48704;50.534;6.442;2022-10-31T07:13:51;18.77;;;9.40;;
62633;SDS011;48704;50.534;6.442;2022-10-31T07:16:16;17.13;;;9.18;;
62633;SDS011;48704;50.534;6.442;2022-10-31T07:18:41;20.08;;;9.57;;
62633;SDS011;48704;50.534;6.442;2022-10-31T07:21:07;19.80;;;9.38;;
62633;SDS011;48704;50.534;6.442;2022-10-31T07:23:32;20.15;;;9.40;;
62633;SDS011;48704;50.534;6.442;2022-10-31T07:25:58;20.50;;;8.75;;
62633;SDS011;48704;50.534;6.442;2022-10-31T07:28:25;21.35;;;10.73;;
62633;SDS011;48704;50.534;6.442;2022-10-31T07:30:52;19.80;;;10.98;;
62633;SDS011;48704;50.534;6.442;2022-10-31T07:33:21;24.75;;;9.52;;
62633;SDS011;48704;50.534;6.442;2022-10-31T07:35:47;15.13;;;8.07;;
62633;SDS011;48704;50.534;6.442;2022-10-31T07:38:12;16.90;;;7.05;;
62633;SDS011;48704;50.534;6.442;2022-10-31T07:40:39;15.70;;;7.93;;
62633;SDS011;48704;50.534;6.442;2022-10-31T07:43:06;17.48;;;7.40;;
62633;SDS011;48704;50.534;6.442;2022-10-31T07:45:31;12.93;;;6.57;;
62633;SDS011;48704;50.534;6.442;2022-10-31T07:47:56;14.63;;;7.07;;
62633;SDS011;48704;50.534;6.442;2022-10-31T07:50:26;18.85;;;7.00;;
62633;SDS011;48704;50.534;6.442;2022-10-31T07:55:30;17.15;;;7.53;;
62633;SDS011;48704;50.534;6.442;2022-10-31T07:57:57;14.40;;;7.20;;
62633;SDS011;48704;50.534;6.442;2022-10-31T08:00:28;14.75;;;7.47;;
62633;SDS011;48704;50.534;6.442;2022-10-31T08:03:00;18.13;;;7.57;;
62633;SDS011;48704;50.534;6.442;2022-10-31T08:05:27;16.13;;;7.18;;
62633;SDS011;48704;50.534;6.442;2022-10-31T08:07:53;14.10;;;7.03;;
62633;SDS011;48704;50.534;6.442;2022-10-31T08:10:18;14.77;;;7.35;;
62633;SDS011;48704;50.534;6.442;2022-10-31T08:12:44;19.50;;;7.80;;
62633;SDS011;48704;50.534;6.442;2022-10-31T08:15:10;17.50;;;8.02;;
62633;SDS011;48704;50.534;6.442;2022-10-31T08:17:35;14.05;;;8.38;;
62633;SDS011;48704;50.534;6.442;2022-10-31T08:20:02;18.95;;;7.80;;
62633;SDS011;48704;50.534;6.442;2022-10-31T08:22:28;16.83;;;8.25;;
62633;SDS011;48704;50.534;6.442;2022-10-31T08:24:53;17.77;;;8.00;;
62633;SDS011;48704;50.534;6.442;2022-10-31T08:27:18;14.75;;;7.45;;
62633;SDS011;48704;50.534;6.442;2022-10-31T08:29:44;13.88;;;7.20;;
62633;SDS011;48704;50.534;6.442;2022-10-31T08:32:09;16.08;;;7.55;;
62633;SDS011;48704;50.534;6.442;2022-10-31T08:34:34;13.57;;;6.63;;
62633;SDS011;48704;50.534;6.442;2022-10-31T08:36:59;15.27;;;6.95;;
62633;SDS011;48704;50.534;6.442;2022-10-31T08:39:25;15.25;;;6.90;;
62633;SDS011;48704;50.534;6.442;2022-10-31T08:41:50;10.23;;;5.53;;
62633;SDS011;48704;50.534;6.442;2022-10-31T08:44:15;11.88;;;6.13;;
62633;SDS011;48704;50.534;6.442;2022-10-31T08:46:41;10.93;;;5.43;;
62633;SDS011;48704;50.534;6.442;2022-10-31T08:49:06;13.82;;;5.97;;
62633;SDS011;48704;50.534;6.442;2022-10-31T08:51:31;11.05;;;5.47;;
62633;SDS011;48704;50.534;6.442;2022-10-31T08:53:57;11.85;;;5.47;;
62633;SDS011;48704;50.534;6.442;2022-10-31T08:56:22;12.93;;;5.18;;
62633;SDS011;48704;50.534;6.442;2022-10-31T08:58:48;12.75;;;5.03;;
62633;SDS011;48704;50.534;6.442;2022-10-31T09:01:13;14.15;;;4.90;;
62633;SDS011;48704;50.534;6.442;2022-10-31T09:03:38;11.38;;;5.03;;
62633;SDS011;48704;50.534;6.442;2022-10-31T09:06:04;12.48;;;5.35;;
62633;SDS011;48704;50.534;6.442;2022-10-31T09:08:33;9.20;;;4.90;;
62633;SDS011;48704;50.534;6.442;2022-10-31T09:11:00;13.93;;;5.43;;
62633;SDS011;48704;50.534;6.442;2022-10-31T09:13:26;15.90;;;5.25;;
62633;SDS011;48704;50.534;6.442;2022-10-31T09:15:52;12.32;;;5.15;;
62633;SDS011;48704;50.534;6.442;2022-10-31T09:18:18;13.35;;;5.32;;
62633;SDS011;48704;50.534;6.442;2022-10-31T09:20:46;10.68;;;4.63;;
62633;SDS011;48704;50.534;6.442;2022-10-31T09:23:17;11.07;;;4.80;;
62633;SDS011;48704;50.534;6.442;2022-10-31T09:25:44;16.20;;;5.50;;
62633;SDS011;48704;50.534;6.442;2022-10-31T09:28:11;10.68;;;4.68;;
62633;SDS011;48704;50.534;6.442;2022-10-31T09:30:38;12.48;;;4.68;;
62633;SDS011;48704;50.534;6.442;2022-10-31T09:33:05;12.00;;;5.22;;
62633;SDS011;48704;50.534;6.442;2022-10-31T09:35:32;12.30;;;4.93;;
62633;SDS011;48704;50.534;6.442;2022-10-31T09:37:58;11.68;;;4.43;;
62633;SDS011;48704;50.534;6.442;2022-10-31T09:40:27;10.70;;;5.05;;
62633;SDS011;48704;50.534;6.442;2022-10-31T09:42:59;16.33;;;4.78;;
62633;SDS011;48704;50.534;6.442;2022-10-31T09:48:24;13.60;;;4.25;;
62633;SDS011;48704;50.534;6.442;2022-10-31T09:50:52;10.30;;;4.90;;
62633;SDS011;48704;50.534;6.442;2022-10-31T09:53:23;14.20;;;5.25;;
62633;SDS011;48704;50.534;6.442;2022-10-31T09:56:04;13.90;;;5.35;;
62633;SDS011;48704;50.534;6.442;2022-10-31T09:58:34;10.38;;;3.85;;
62633;SDS011;48704;50.534;6.442;2022-10-31T10:01:09;10.73;;;4.65;;
62633;SDS011;48704;50.534;6.442;2022-10-31T10:03:51;11.88;;;4.78;;
62633;SDS011;48704;50.534;6.442;2022-10-31T10:06:23;12.15;;;4.45;;
62633;SDS011;48704;50.534;6.442;2022-10-31T10:08:52;9.20;;;4.68;;
62633;SDS011;48704;50.534;6.442;2022-10-31T10:14:38;10.05;;;3.75;;
62633;SDS011;48704;50.534;6.442;2022-10-31T10:19:55;10.30;;;3.90;;
62633;SDS011;48704;50.534;6.442;2022-10-31T10:22:35;12.65;;;4.45;;
62633;SDS011;48704;50.534;6.442;2022-10-31T10:25:15;14.18;;;4.75;;
62633;SDS011;48704;50.534;6.442;2022-10-31T10:30:46;9.82;;;3.92;;
62633;SDS011;48704;50.534;6.442;2022-10-31T10:33:18;10.02;;;4.45;;
62633;SDS011;48704;50.534;6.442;2022-10-31T10:35:49;12.95;;;4.00;;
62633;SDS011;48704;50.534;6.442;2022-10-31T10:38:29;15.25;;;4.63;;
62633;SDS011;48704;50.534;6.442;2022-10-31T10:40:59;9.85;;;4.20;;
62633;SDS011;48704;50.534;6.442;2022-10-31T10:43:35;9.13;;;4.22;;
62633;SDS011;48704;50.534;6.442;2022-10-31T10:49:09;11.70;;;4.20;;
62633;SDS011;48704;50.534;6.442;2022-10-31T10:51:45;11.25;;;3.65;;
62633;SDS011;48704;50.534;6.442;2022-10-31T10:54:37;11.20;;;3.78;;
62633;SDS011;48704;50.534;6.442;2022-10-31T10:59:36;10.00;;;4.10;;
62633;SDS011;48704;50.534;6.442;2022-10-31T11:02:02;11.60;;;4.18;;
62633;SDS011;48704;50.534;6.442;2022-10-31T11:04:32;14.63;;;3.92;;
62633;SDS011;48704;50.534;6.442;2022-10-31T11:07:07;12.00;;;5.10;;
62633;SDS011;48704;50.534;6.442;2022-10-31T11:09:34;10.93;;;4.32;;
62633;SDS011;48704;50.534;6.442;2022-10-31T11:12:11;12.77;;;4.18;;
62633;SDS011;48704;50.534;6.442;2022-10-31T11:17:31;16.60;;;4.47;;
62633;SDS011;48704;50.534;6.442;2022-10-31T11:20:22;14.90;;;4.70;;
62633;SDS011;48704;50.534;6.442;2022-10-31T11:22:44;9.52;;;3.90;;
62633;SDS011;48704;50.534;6.442;2022-10-31T11:25:24;10.63;;;3.47;;
62633;SDS011;48704;50.534;6.442;2022-10-31T11:30:27;10.13;;;4.03;;
62633;SDS011;48704;50.534;6.442;2022-10-31T11:32:53;8.77;;;3.85;;
62633;SDS011;48704;50.534;6.442;2022-10-31T11:35:19;8.52;;;3.60;;
62633;SDS011;48704;50.534;6.442;2022-10-31T11:37:47;12.13;;;3.75;;
62633;SDS011;48704;50.534;6.442;2022-10-31T11:40:16;11.25;;;3.95;;
62633;SDS011;48704;50.534;6.442;2022-10-31T11:42:43;9.50;;;3.67;;
62633;SDS011;48704;50.534;6.442;2022-10-31T11:45:17;13.45;;;3.75;;
62633;SDS011;48704;50.534;6.442;2022-10-31T11:47:52;8.30;;;3.88;;
62633;SDS011;48704;50.534;6.442;2022-10-31T11:53:03;10.35;;;4.72;;
62633;SDS011;48704;50.534;6.442;2022-10-31T11:55:37;9.05;;;3.75;;
62633;SDS011;48704;50.534;6.442;2022-10-31T11:58:04;13.02;;;3.58;;
62633;SDS011;48704;50.534;6.442;2022-10-31T12:00:48;10.77;;;3.72;;
62633;SDS011;48704;50.534;6.442;2022-10-31T12:03:23;7.50;;;3.45;;
62633;SDS011;48704;50.534;6.442;2022-10-31T12:05:58;8.45;;;3.63;;
62633;SDS011;48704;50.534;6.442;2022-10-31T12:08:32;13.93;;;4.07;;
62633;SDS011;48704;50.534;6.442;2022-10-31T12:13:58;9.02;;;3.42;;
62633;SDS011;48704;50.534;6.442;2022-10-31T12:22:08;10.25;;;3.97;;
62633;SDS011;48704;50.534;6.442;2022-10-31T12:24:50;6.65;;;3.55;;
62633;SDS011;48704;50.534;6.442;2022-10-31T12:52:10;6.40;;;3.20;;
62633;SDS011;48704;50.534;6.442;2022-10-31T13:00:15;8.25;;;3.00;;
62633;SDS011;48704;50.534;6.442;2022-10-31T13:02:49;9.05;;;3.25;;
62633;SDS011;48704;50.534;6.442;2022-10-31T13:05:21;10.55;;;3.40;;
62633;SDS011;48704;50.534;6.442;2022-10-31T13:08:03;18.40;;;3.65;;
62633;SDS011;48704;50.534;6.442;2022-10-31T13:10:42;7.10;;;3.35;;
62633;SDS011;48704;50.534;6.442;2022-10-31T13:16:02;9.35;;;3.35;;
62633;SDS011;48704;50.534;6.442;2022-10-31T13:18:43;9.45;;;3.38;;
62633;SDS011;48704;50.534;6.442;2022-10-31T13:21:26;6.32;;;2.90;;
62633;SDS011;48704;50.534;6.442;2022-10-31T13:23:56;9.55;;;3.28;;
62633;SDS011;48704;50.534;6.442;2022-10-31T13:29:28;8.73;;;3.67;;
62633;SDS011;48704;50.534;6.442;2022-10-31T13:31:58;8.32;;;3.28;;
62633;SDS011;48704;50.534;6.442;2022-10-31T13:34:27;7.88;;;3.65;;
62633;SDS011;48704;50.534;6.442;2022-10-31T13:36:58;8.13;;;3.90;;
62633;SDS011;48704;50.534;6.442;2022-10-31T13:42:37;12.13;;;3.97;;
62633;SDS011;48704;50.534;6.442;2022-10-31T13:47:41;7.72;;;3.47;;
62633;SDS011;48704;50.534;6.442;2022-10-31T13:52:44;11.90;;;3.55;;
62633;SDS011;48704;50.534;6.442;2022-10-31T14:03:39;10.65;;;3.47;;
62633;SDS011;48704;50.534;6.442;2022-10-31T14:06:07;9.95;;;3.33;;
62633;SDS011;48704;50.534;6.442;2022-10-31T14:08:34;12.43;;;3.10;;
62633;SDS011;48704;50.534;6.442;2022-10-31T14:11:02;10.40;;;3.60;;
62633;SDS011;48704;50.534;6.442;2022-10-31T14:13:35;7.40;;;3.20;;
62633;SDS011;48704;50.534;6.442;2022-10-31T14:16:06;6.30;;;3.33;;
62633;SDS011;48704;50.534;6.442;2022-10-31T14:18:48;7.85;;;2.40;;
62633;SDS011;48704;50.534;6.442;2022-10-31T14:23:47;9.50;;;3.05;;
62633;SDS011;48704;50.534;6.442;2022-10-31T14:26:17;14.52;;;3.65;;
62633;SDS011;48704;50.534;6.442;2022-10-31T14:28:51;8.30;;;3.13;;
62633;SDS011;48704;50.534;6.442;2022-10-31T14:33:52;9.35;;;3.28;;
62633;SDS011;48704;50.534;6.442;2022-10-31T14:36:18;7.10;;;2.83;;
62633;SDS011;48704;50.534;6.442;2022-10-31T14:38:57;7.72;;;3.08;;
62633;SDS011;48704;50.534;6.442;2022-10-31T14:41:36;6.88;;;2.75;;
62633;SDS011;48704;50.534;6.442;2022-10-31T14:44:16;8.15;;;2.60;;
62633;SDS011;48704;50.534;6.442;2022-10-31T14:52:23;6.85;;;3.38;;
62633;SDS011;48704;50.534;6.442;2022-10-31T14:54:50;8.38;;;2.38;;
62633;SDS011;48704;50.534;6.442;2022-10-31T14:57:21;9.75;;;3.53;;
62633;SDS011;48704;50.534;6.442;2022-10-31T14:59:51;11.30;;;3.38;;
62633;SDS011;48704;50.534;6.442;2022-10-31T15:04:53;8.90;;;3.13;;
62633;SDS011;48704;50.534;6.442;2022-10-31T15:07:21;9.18;;;3.33;;
62633;SDS011;48704;50.534;6.442;2022-10-31T15:09:57;8.23;;;2.95;;
62633;SDS011;48704;50.534;6.442;2022-10-31T15:14:57;10.73;;;3.28;;
62633;SDS011;48704;50.534;6.442;2022-10-31T15:17:35;9.55;;;3.33;;
62633;SDS011;48704;50.534;6.442;2022-10-31T15:20:00;7.30;;;3.58;;
62633;SDS011;48704;50.534;6.442;2022-10-31T15:22:26;10.13;;;3.03;;
62633;SDS011;48704;50.534;6.442;2022-10-31T15:24:54;7.38;;;3.13;;
62633;SDS011;48704;50.534;6.442;2022-10-31T15:27:21;9.45;;;3.03;;
62633;SDS011;48704;50.534;6.442;2022-10-31T15:29:57;7.68;;;3.00;;
62633;SDS011;48704;50.534;6.442;2022-10-31T15:32:27;9.02;;;2.90;;
62633;SDS011;48704;50.534;6.442;2022-10-31T15:34:54;8.32;;;3.05;;
62633;SDS011;48704;50.534;6.442;2022-10-31T15:37:21;5.47;;;2.67;;
62633;SDS011;48704;50.534;6.442;2022-10-31T15:39:50;7.13;;;2.95;;
62633;SDS011;48704;50.534;6.442;2022-10-31T15:45:05;9.75;;;3.22;;
62633;SDS011;48704;50.534;6.442;2022-10-31T15:50:35;8.77;;;3.60;;
62633;SDS011;48704;50.534;6.442;2022-10-31T15:53:02;7.47;;;2.88;;
62633;SDS011;48704;50.534;6.442;2022-10-31T15:55:29;8.35;;;2.70;;
62633;SDS011;48704;50.534;6.442;2022-10-31T15:58:02;10.23;;;3.15;;
62633;SDS011;48704;50.534;6.442;2022-10-31T16:05:48;9.95;;;3.10;;
62633;SDS011;48704;50.534;6.442;2022-10-31T16:08:26;7.63;;;3.22;;
62633;SDS011;48704;50.534;6.442;2022-10-31T16:13:33;7.15;;;2.90;;
62633;SDS011;48704;50.534;6.442;2022-10-31T16:16:01;10.95;;;3.00;;
62633;SDS011;48704;50.534;6.442;2022-10-31T16:18:29;11.85;;;3.28;;
62633;SDS011;48704;50.534;6.442;2022-10-31T16:21:01;5.23;;;2.60;;
62633;SDS011;48704;50.534;6.442;2022-10-31T16:23:27;13.93;;;2.72;;
62633;SDS011;48704;50.534;6.442;2022-10-31T16:25:53;7.55;;;2.33;;
62633;SDS011;48704;50.534;6.442;2022-10-31T16:28:19;8.27;;;2.58;;
62633;SDS011;48704;50.534;6.442;2022-10-31T16:30:52;8.52;;;2.88;;
62633;SDS011;48704;50.534;6.442;2022-10-31T16:33:41;8.05;;;2.70;;
62633;SDS011;48704;50.534;6.442;2022-10-31T16:38:52;6.82;;;2.65;;
62633;SDS011;48704;50.534;6.442;2022-10-31T16:41:18;5.68;;;2.28;;
62633;SDS011;48704;50.534;6.442;2022-10-31T16:43:44;9.60;;;3.08;;
62633;SDS011;48704;50.534;6.442;2022-10-31T16:46:12;6.93;;;2.70;;
62633;SDS011;48704;50.534;6.442;2022-10-31T16:48:40;9.88;;;2.95;;
62633;SDS011;48704;50.534;6.442;2022-10-31T16:51:06;9.30;;;2.95;;
62633;SDS011;48704;50.534;6.442;2022-10-31T16:53:32;8.63;;;2.55;;
62633;SDS011;48704;50.534;6.442;2022-10-31T16:55:58;7.80;;;2.83;;
62633;SDS011;48704;50.534;6.442;2022-10-31T16:58:31;8.05;;;2.45;;
62633;SDS011;48704;50.534;6.442;2022-10-31T17:00:58;5.45;;;2.00;;
62633;SDS011;48704;50.534;6.442;2022-10-31T17:03:25;10.15;;;3.10;;
62633;SDS011;48704;50.534;6.442;2022-10-31T17:05:51;6.53;;;2.90;;
62633;SDS011;48704;50.534;6.442;2022-10-31T17:08:16;6.63;;;2.60;;
62633;SDS011;48704;50.534;6.442;2022-10-31T17:10:42;6.90;;;2.40;;
62633;SDS011;48704;50.534;6.442;2022-10-31T17:13:11;9.23;;;2.72;;
62633;SDS011;48704;50.534;6.442;2022-10-31T17:15:44;6.13;;;2.50;;
62633;SDS011;48704;50.534;6.442;2022-10-31T17:18:12;9.10;;;2.70;;
62633;SDS011;48704;50.534;6.442;2022-10-31T17:20:38;5.55;;;2.53;;
62633;SDS011;48704;50.534;6.442;2022-10-31T17:23:04;6.68;;;2.88;;